createdAt,value
2023-05-05T00:00:23.086Z,48.77
2023-05-05T00:03:46.082Z,48.35
2023-05-05T00:06:49.000Z,48.68
2023-05-05T00:09:51.537Z,48.65
2023-05-05T00:12:54.211Z,48.67
2023-05-05T00:15:56.957Z,49.04
2023-05-05T00:18:59.838Z,48.46
2023-05-05T00:22:02.428Z,48.95
2023-05-05T00:25:05.205Z,49.15
2023-05-05T00:28:08.009Z,49.34
2023-05-05T00:31:11.825Z,49.01
2023-05-05T00:34:14.535Z,49.00
2023-05-05T00:37:17.381Z,49.56
2023-05-05T00:40:19.952Z,49.44
2023-05-05T00:43:22.473Z,49.32
2023-05-05T00:46:29.451Z,49.46
2023-05-05T00:49:33.330Z,49.08
2023-05-05T00:52:36.956Z,49.48
2023-05-05T00:55:39.541Z,49.85
2023-05-05T00:58:42.870Z,49.65
2023-05-05T01:01:46.588Z,49.99
2023-05-05T01:04:49.325Z,50.09
2023-05-05T01:08:10.748Z,49.76
2023-05-05T01:11:23.743Z,50.03
2023-05-05T01:14:37.091Z,50.13
2023-05-05T01:17:42.451Z,49.68
2023-05-05T01:20:49.524Z,49.45
2023-05-05T01:23:52.360Z,49.90
2023-05-05T01:27:13.667Z,50.01
2023-05-05T01:30:34.788Z,50.30
2023-05-05T01:33:48.854Z,50.41
2023-05-05T01:37:17.874Z,50.17
2023-05-05T01:40:25.269Z,50.23
2023-05-05T01:43:29.606Z,50.37
2023-05-05T01:46:34.212Z,50.21
2023-05-05T01:49:37.305Z,50.20
2023-05-05T01:52:41.334Z,50.41
2023-05-05T01:55:44.526Z,50.31
2023-05-05T01:58:48.188Z,50.41
2023-05-05T02:01:50.972Z,50.58
2023-05-05T02:04:54.666Z,50.62
2023-05-05T02:07:59.040Z,50.54
2023-05-05T02:11:02.032Z,50.72
2023-05-05T02:14:05.525Z,50.97
2023-05-05T02:17:08.961Z,50.94
2023-05-05T02:20:12.850Z,50.84
2023-05-05T02:23:15.955Z,50.43
2023-05-05T02:26:20.123Z,50.73
2023-05-05T02:29:27.668Z,50.93
2023-05-05T02:32:50.616Z,50.97
2023-05-05T02:35:54.212Z,51.22
2023-05-05T02:38:59.280Z,51.32
2023-05-05T02:42:03.929Z,51.37
2023-05-05T02:45:15.107Z,51.36
2023-05-05T02:48:18.354Z,51.16
2023-05-05T02:51:20.727Z,51.59
2023-05-05T02:54:24.548Z,51.91
2023-05-05T02:57:39.014Z,52.27
2023-05-05T03:00:47.453Z,52.13
2023-05-05T03:04:00.414Z,52.06
2023-05-05T03:07:07.042Z,52.34
2023-05-05T03:10:12.145Z,52.56
2023-05-05T03:13:17.921Z,52.49
2023-05-05T03:16:23.184Z,52.75
2023-05-05T03:19:26.974Z,52.84
2023-05-05T03:22:29.719Z,52.67
2023-05-05T03:25:42.642Z,53.06
2023-05-05T03:28:45.409Z,53.72
2023-05-05T03:31:49.222Z,54.24
2023-05-05T03:34:51.767Z,55.04
2023-05-05T03:38:00.940Z,55.16
2023-05-05T03:41:03.711Z,55.55
2023-05-05T03:44:07.506Z,55.19
2023-05-05T03:47:10.887Z,55.57
2023-05-05T03:50:14.206Z,55.91
2023-05-05T03:53:16.792Z,56.39
2023-05-05T03:56:19.987Z,56.42
2023-05-05T03:59:22.336Z,56.13
2023-05-05T04:02:25.503Z,56.33
2023-05-05T04:05:29.103Z,56.71
2023-05-05T04:08:31.766Z,56.54
2023-05-05T04:11:34.528Z,56.94
2023-05-05T04:14:37.636Z,57.46
2023-05-05T04:17:40.623Z,57.84
2023-05-05T04:20:43.955Z,57.75
2023-05-05T04:23:46.746Z,57.38
2023-05-05T04:26:49.604Z,57.22
2023-05-05T04:29:52.380Z,57.38
2023-05-05T04:32:55.267Z,57.38
2023-05-05T04:35:58.468Z,57.28
2023-05-05T04:39:01.544Z,56.95
2023-05-05T04:42:04.703Z,56.88
2023-05-05T04:45:08.553Z,56.52
2023-05-05T04:48:11.690Z,56.30
2023-05-05T04:51:14.454Z,56.15
2023-05-05T04:54:17.095Z,56.20
2023-05-05T04:57:19.652Z,56.86
2023-05-05T05:00:22.330Z,56.64
2023-05-05T05:03:25.009Z,55.98
2023-05-05T05:06:29.385Z,55.52
2023-05-05T05:09:32.647Z,55.60
2023-05-05T05:12:35.497Z,55.66
2023-05-05T05:15:41.128Z,55.40
2023-05-05T05:18:43.706Z,55.33
2023-05-05T05:21:46.404Z,54.75
2023-05-05T05:24:49.278Z,54.17
2023-05-05T05:28:02.270Z,54.89
2023-05-05T05:31:12.417Z,54.33
2023-05-05T05:34:15.169Z,54.74
2023-05-05T05:37:18.315Z,55.42
2023-05-05T05:40:21.349Z,54.20
2023-05-05T05:43:23.930Z,54.70
2023-05-05T05:46:26.558Z,53.92
2023-05-05T05:49:29.233Z,53.67
2023-05-05T05:52:32.118Z,53.24
2023-05-05T05:55:35.931Z,53.51
2023-05-05T05:58:39.091Z,51.79
2023-05-05T06:01:42.862Z,51.63
2023-05-05T06:04:45.849Z,51.10
2023-05-05T06:07:48.233Z,51.23
2023-05-05T06:10:51.714Z,51.39
2023-05-05T06:13:54.155Z,51.75
2023-05-05T06:16:57.173Z,51.62
2023-05-05T06:20:00.509Z,49.55
2023-05-05T06:23:03.628Z,50.66
2023-05-05T06:26:06.477Z,50.35
2023-05-05T06:29:11.758Z,49.33
2023-05-05T06:32:14.562Z,49.33
2023-05-05T06:35:17.622Z,49.57
2023-05-05T06:38:20.035Z,49.60
2023-05-05T06:41:22.916Z,47.70
2023-05-05T06:44:25.543Z,45.70
2023-05-05T06:47:28.151Z,46.54
2023-05-05T06:50:30.901Z,46.99
2023-05-05T06:53:33.988Z,47.01
2023-05-05T06:56:36.562Z,47.22
2023-05-05T06:59:39.420Z,45.85
2023-05-05T07:02:42.131Z,45.52
2023-05-05T07:05:44.714Z,45.19
2023-05-05T07:08:47.366Z,44.89
2023-05-05T07:11:49.992Z,44.72
2023-05-05T07:14:52.608Z,43.78
2023-05-05T07:17:55.259Z,42.72
2023-05-05T07:20:57.941Z,43.63
2023-05-05T07:24:01.233Z,42.66
2023-05-05T07:27:03.874Z,43.36
2023-05-05T07:30:11.215Z,42.75
2023-05-05T07:33:15.960Z,41.21
2023-05-05T07:36:18.663Z,42.70
2023-05-05T07:39:21.409Z,39.64
2023-05-05T07:42:23.995Z,41.63
2023-05-05T07:45:26.976Z,41.72
2023-05-05T07:48:30.299Z,41.30
2023-05-05T07:51:34.573Z,40.21
2023-05-05T07:54:37.648Z,40.18
2023-05-05T07:57:40.313Z,39.67
2023-05-05T08:00:43.930Z,38.80
2023-05-05T08:03:46.901Z,40.19
2023-05-05T08:06:49.225Z,39.24
2023-05-05T08:09:52.194Z,36.65
2023-05-05T08:12:55.062Z,37.26
2023-05-05T08:15:58.087Z,38.69
2023-05-05T08:19:00.490Z,36.21
2023-05-05T08:22:03.409Z,34.94
2023-05-05T08:25:06.363Z,34.26
2023-05-05T08:28:09.495Z,36.07
2023-05-05T08:31:12.287Z,34.09
2023-05-05T08:34:15.141Z,32.34
2023-05-05T08:37:18.934Z,31.70
2023-05-05T08:40:25.058Z,30.94
2023-05-05T08:43:27.533Z,30.71
2023-05-05T08:46:31.222Z,31.15
2023-05-05T08:49:40.398Z,32.57
2023-05-05T08:52:45.528Z,33.08
2023-05-05T08:55:51.759Z,32.63
2023-05-05T08:58:56.491Z,31.90
2023-05-05T09:01:59.245Z,29.34
2023-05-05T09:05:05.357Z,31.20
2023-05-05T09:08:10.564Z,30.80
2023-05-05T09:11:13.503Z,29.08
2023-05-05T09:14:16.046Z,27.88
2023-05-05T09:17:22.376Z,26.50
2023-05-05T09:20:24.936Z,26.33
2023-05-05T09:23:27.780Z,25.49
2023-05-05T09:26:32.817Z,25.44
2023-05-05T09:29:35.745Z,25.22
2023-05-05T09:32:49.079Z,25.19
2023-05-05T09:35:53.512Z,23.68
2023-05-05T09:39:06.472Z,26.09
2023-05-05T09:42:17.672Z,23.85
2023-05-05T09:45:20.084Z,24.17
2023-05-05T09:48:30.163Z,24.54
2023-05-05T09:51:32.465Z,24.02
2023-05-05T09:54:35.470Z,23.74
2023-05-05T09:57:37.749Z,25.07
2023-05-05T10:00:40.663Z,26.77
2023-05-05T10:03:50.165Z,24.42
2023-05-05T10:06:52.924Z,25.52
2023-05-05T10:09:56.555Z,22.15
2023-05-05T10:12:59.441Z,25.31
2023-05-05T10:16:03.424Z,22.41
2023-05-05T10:19:06.725Z,22.03
2023-05-05T10:22:10.415Z,23.08
2023-05-05T10:25:14.312Z,22.90
2023-05-05T10:28:22.165Z,22.55
2023-05-05T10:31:28.455Z,21.86
2023-05-05T10:34:38.251Z,24.38
2023-05-05T10:37:41.513Z,24.91
2023-05-05T10:40:48.806Z,22.00
2023-05-05T10:43:52.931Z,22.93
2023-05-05T10:46:55.758Z,23.88
2023-05-05T10:50:04.336Z,24.87
2023-05-05T10:53:18.218Z,25.93
2023-05-05T10:56:30.247Z,25.84
2023-05-05T10:59:39.041Z,26.90
2023-05-05T11:02:42.050Z,24.46
2023-05-05T11:06:03.562Z,24.96
2023-05-05T11:09:24.732Z,26.48
2023-05-05T11:12:31.166Z,25.89
2023-05-05T11:15:37.662Z,25.93
2023-05-05T11:18:43.266Z,24.61
2023-05-05T11:22:04.454Z,23.77
2023-05-05T11:25:25.670Z,25.89
2023-05-05T11:28:32.533Z,24.43
2023-05-05T11:31:35.198Z,24.47
2023-05-05T11:34:47.886Z,23.54
2023-05-05T11:38:03.352Z,22.56
2023-05-05T11:41:12.405Z,24.12
2023-05-05T11:44:18.825Z,23.05
2023-05-05T11:47:21.397Z,24.27
2023-05-05T11:50:24.640Z,24.11
2023-05-05T11:53:27.488Z,23.65
2023-05-05T11:56:30.132Z,24.84
2023-05-05T11:59:33.572Z,23.81
2023-05-05T12:02:36.371Z,24.05
2023-05-05T12:05:39.544Z,23.51
2023-05-05T12:08:41.884Z,22.97
2023-05-05T12:11:48.282Z,24.80
2023-05-05T12:14:52.456Z,24.58
2023-05-05T12:17:55.459Z,24.25
2023-05-05T12:20:58.180Z,24.15
2023-05-05T12:24:01.174Z,25.49
2023-05-05T12:27:13.554Z,26.02
2023-05-05T12:30:17.574Z,25.63
2023-05-05T12:33:20.605Z,26.00
2023-05-05T12:36:23.452Z,25.98
2023-05-05T12:39:36.336Z,25.98
2023-05-05T12:42:39.982Z,26.03
2023-05-05T12:45:42.625Z,26.86
2023-05-05T12:48:48.121Z,25.00
2023-05-05T12:51:54.657Z,26.53
2023-05-05T12:54:58.826Z,25.26
2023-05-05T12:58:02.132Z,25.56
2023-05-05T13:01:08.179Z,24.61
2023-05-05T13:04:13.658Z,29.40
2023-05-05T13:07:17.907Z,27.44
2023-05-05T13:10:20.491Z,27.10
2023-05-05T13:13:23.469Z,26.15
2023-05-05T13:16:25.759Z,25.09
2023-05-05T13:19:28.921Z,25.38
2023-05-05T13:22:31.264Z,28.82
2023-05-05T13:25:34.081Z,28.06
2023-05-05T13:28:36.395Z,26.05
2023-05-05T13:31:39.371Z,27.37
2023-05-05T13:34:43.581Z,27.01
2023-05-05T13:37:47.823Z,29.23
2023-05-05T13:40:50.154Z,26.98
2023-05-05T13:43:53.147Z,28.72
2023-05-05T13:46:55.489Z,28.83
2023-05-05T13:49:58.417Z,26.64
2023-05-05T13:53:00.761Z,29.27
2023-05-05T13:56:04.008Z,29.65
2023-05-05T13:59:06.398Z,29.55
2023-05-05T14:02:09.399Z,41.41
2023-05-05T14:05:12.071Z,55.52
2023-05-05T14:08:14.994Z,60.64
2023-05-05T14:11:18.208Z,50.40
2023-05-05T14:14:20.864Z,57.61
2023-05-05T14:17:23.614Z,37.78
2023-05-05T14:20:26.953Z,36.21
2023-05-05T14:23:29.822Z,45.39
2023-05-05T14:26:32.432Z,45.99
2023-05-05T14:29:35.008Z,36.42
2023-05-05T14:32:37.580Z,33.76
2023-05-05T14:35:40.312Z,35.76
2023-05-05T14:38:43.080Z,33.71
2023-05-05T14:41:46.678Z,33.66
2023-05-05T14:44:49.276Z,33.73
2023-05-05T14:47:51.902Z,33.28
2023-05-05T14:50:54.565Z,34.94
2023-05-05T14:53:57.182Z,30.54
2023-05-05T14:56:59.885Z,32.25
2023-05-05T15:00:02.608Z,30.92
2023-05-05T15:03:05.602Z,30.21
2023-05-05T15:06:09.359Z,29.83
2023-05-05T15:09:13.092Z,32.26
2023-05-05T15:12:15.777Z,35.05
2023-05-05T15:15:18.370Z,32.05
2023-05-05T15:18:20.949Z,30.23
2023-05-05T15:21:23.689Z,30.32
2023-05-05T15:24:26.369Z,32.03
2023-05-05T15:27:30.053Z,30.84
2023-05-05T15:30:32.704Z,31.81
2023-05-05T15:33:36.083Z,32.49
2023-05-05T15:36:38.818Z,30.63
2023-05-05T15:39:41.407Z,30.44
2023-05-05T15:42:44.017Z,30.53
2023-05-05T15:45:46.648Z,30.93
2023-05-05T15:48:49.761Z,30.59
2023-05-05T15:51:53.037Z,30.36
2023-05-05T15:54:55.745Z,30.83
2023-05-05T15:57:58.408Z,32.63
2023-05-05T16:01:01.116Z,32.73
2023-05-05T16:04:04.216Z,33.47
2023-05-05T16:07:06.544Z,31.70
2023-05-05T16:10:10.080Z,32.70
2023-05-05T16:13:12.609Z,31.62
2023-05-05T16:16:15.546Z,32.11
2023-05-05T16:19:18.153Z,31.98
2023-05-05T16:22:21.100Z,33.04
2023-05-05T16:25:23.524Z,33.71
2023-05-05T16:28:26.378Z,34.25
2023-05-05T16:31:28.657Z,31.72
2023-05-05T16:34:31.523Z,32.29
2023-05-05T16:37:33.786Z,33.06
2023-05-05T16:40:37.726Z,32.65
2023-05-05T16:43:40.103Z,34.27
2023-05-05T16:46:43.162Z,34.20
2023-05-05T16:49:45.470Z,33.56
2023-05-05T16:52:48.503Z,33.86
2023-05-05T16:55:52.021Z,33.48
2023-05-05T16:58:54.885Z,34.30
2023-05-05T17:01:57.831Z,34.27
2023-05-05T17:05:00.783Z,34.83
2023-05-05T17:08:03.933Z,34.00
2023-05-05T17:11:06.905Z,34.00
2023-05-05T17:14:09.279Z,33.95
2023-05-05T17:17:13.143Z,34.79
2023-05-05T17:20:15.597Z,34.44
2023-05-05T17:23:21.097Z,34.30
2023-05-05T17:26:24.357Z,33.58
2023-05-05T17:29:27.225Z,33.69
2023-05-05T17:32:29.624Z,34.15
2023-05-05T17:35:32.721Z,33.97
2023-05-05T17:38:35.069Z,34.86
2023-05-05T17:41:37.965Z,35.42
2023-05-05T17:44:40.283Z,35.34
2023-05-05T17:47:43.429Z,34.92
2023-05-05T17:50:46.932Z,34.65
2023-05-05T17:53:49.763Z,34.62
2023-05-05T17:56:52.485Z,34.77
2023-05-05T17:59:55.630Z,35.47
2023-05-05T18:02:58.115Z,36.02
2023-05-05T18:06:02.352Z,35.50
2023-05-05T18:09:04.684Z,35.43
2023-05-05T18:12:07.836Z,34.95
2023-05-05T18:15:10.586Z,35.30
2023-05-05T18:18:13.831Z,35.72
2023-05-05T18:21:16.210Z,35.07
2023-05-05T18:24:20.490Z,35.31
2023-05-05T18:27:23.360Z,35.05
2023-05-05T18:30:28.521Z,35.87
2023-05-05T18:33:30.916Z,36.04
2023-05-05T18:36:33.931Z,36.36
2023-05-05T18:39:36.223Z,37.63
2023-05-05T18:42:39.191Z,37.17
2023-05-05T18:45:41.991Z,37.05
2023-05-05T18:48:45.411Z,37.40
2023-05-05T18:51:47.704Z,37.90
2023-05-05T18:54:50.562Z,38.39
2023-05-05T18:57:53.383Z,38.56
2023-05-05T19:00:57.262Z,39.19
2023-05-05T19:03:59.709Z,39.58
2023-05-05T19:07:02.658Z,39.94
2023-05-05T19:10:05.164Z,40.41
2023-05-05T19:13:09.262Z,42.51
2023-05-05T19:16:12.135Z,41.48
2023-05-05T19:19:15.082Z,41.90
2023-05-05T19:22:17.762Z,41.86
2023-05-05T19:25:20.661Z,41.72
2023-05-05T19:28:22.999Z,42.53
2023-05-05T19:31:27.822Z,44.67
2023-05-05T19:34:30.317Z,44.26
2023-05-05T19:37:33.341Z,45.24
2023-05-05T19:40:36.287Z,46.59
2023-05-05T19:43:39.445Z,46.61
2023-05-05T19:46:41.785Z,44.48
2023-05-05T19:49:44.647Z,45.71
2023-05-05T19:52:47.014Z,46.49
2023-05-05T19:55:49.853Z,47.21
2023-05-05T19:58:59.257Z,46.90
2023-05-05T20:02:02.348Z,47.42
2023-05-05T20:05:05.615Z,47.54
2023-05-05T20:08:07.970Z,47.97
2023-05-05T20:11:11.281Z,47.84
2023-05-05T20:14:13.588Z,47.83
2023-05-05T20:17:20.096Z,47.78
2023-05-05T20:20:22.913Z,48.14
2023-05-05T20:23:26.369Z,48.63
2023-05-05T20:26:28.787Z,48.88
2023-05-05T20:29:32.007Z,49.09
2023-05-05T20:32:34.466Z,48.78
2023-05-05T20:35:37.731Z,48.71
2023-05-05T20:38:40.101Z,48.83
2023-05-05T20:41:43.149Z,49.04
2023-05-05T20:44:45.533Z,49.29
2023-05-05T20:47:48.443Z,49.25
2023-05-05T20:50:51.565Z,49.67
2023-05-05T20:53:54.416Z,49.48
2023-05-05T20:56:58.162Z,49.58
2023-05-05T21:00:01.052Z,49.43
2023-05-05T21:03:04.383Z,49.87
2023-05-05T21:06:07.410Z,50.16
2023-05-05T21:09:09.716Z,50.15
2023-05-05T21:12:12.610Z,50.38
2023-05-05T21:15:16.543Z,50.44
2023-05-05T21:18:19.469Z,50.30
2023-05-05T21:21:23.879Z,50.44
2023-05-05T21:24:28.093Z,50.54
2023-05-05T21:27:30.559Z,50.59
2023-05-05T21:30:33.510Z,50.70
2023-05-05T21:33:35.918Z,50.79
2023-05-05T21:36:38.862Z,51.35
2023-05-05T21:39:41.737Z,51.70
2023-05-05T21:42:44.723Z,51.74
2023-05-05T21:45:47.133Z,52.06
2023-05-05T21:48:50.126Z,52.09
2023-05-05T21:51:52.454Z,52.44
2023-05-05T21:54:55.482Z,52.66
2023-05-05T21:57:57.819Z,52.75
2023-05-05T22:01:01.291Z,52.84
2023-05-05T22:04:04.112Z,52.67
2023-05-05T22:07:07.012Z,53.01
2023-05-05T22:10:10.137Z,53.04
2023-05-05T22:13:13.976Z,53.31
2023-05-05T22:16:19.518Z,53.59
2023-05-05T22:19:22.412Z,53.70
2023-05-05T22:22:25.650Z,53.84
2023-05-05T22:25:28.319Z,54.07
2023-05-05T22:28:31.065Z,54.10
2023-05-05T22:31:33.731Z,53.98
2023-05-05T22:34:36.578Z,54.38
2023-05-05T22:37:39.323Z,54.55
2023-05-05T22:40:41.987Z,54.36
2023-05-05T22:43:44.712Z,54.89
2023-05-05T22:46:47.305Z,55.16
2023-05-05T22:49:50.129Z,54.74
2023-05-05T22:52:52.796Z,55.36
2023-05-05T22:55:55.339Z,55.43
2023-05-05T22:58:58.441Z,55.99
2023-05-05T23:02:01.947Z,56.20
2023-05-05T23:05:04.718Z,55.92
2023-05-05T23:08:07.482Z,56.26
2023-05-05T23:11:10.107Z,56.40
2023-05-05T23:14:12.756Z,56.30
2023-05-05T23:17:15.545Z,56.70
2023-05-05T23:20:18.187Z,56.72
2023-05-05T23:23:20.958Z,56.48
2023-05-05T23:26:23.693Z,56.77
2023-05-05T23:29:26.647Z,56.89
2023-05-05T23:32:29.637Z,57.02
2023-05-05T23:35:32.548Z,56.67
2023-05-05T23:38:35.164Z,56.90
2023-05-05T23:41:37.769Z,57.14
2023-05-05T23:44:41.351Z,57.11
2023-05-05T23:47:44.128Z,57.35
2023-05-05T23:50:46.769Z,57.43
2023-05-05T23:53:49.478Z,57.72
2023-05-05T23:56:52.098Z,57.92
2023-05-05T23:59:54.676Z,57.92
